createdAt,value
2017-09-14T00:00:35.716Z,18.90
2017-09-14T00:03:03.204Z,18.80
2017-09-14T00:05:31.454Z,18.80
2017-09-14T00:07:59.696Z,18.80
2017-09-14T00:10:27.188Z,18.70
2017-09-14T00:12:54.668Z,18.80
2017-09-14T00:15:22.921Z,18.70
2017-09-14T00:17:50.405Z,18.70
2017-09-14T00:20:18.652Z,18.70
2017-09-14T00:22:46.135Z,18.60
2017-09-14T00:25:14.381Z,18.60
2017-09-14T00:27:41.869Z,18.60
2017-09-14T00:30:10.123Z,18.60
2017-09-14T00:32:37.613Z,18.50
2017-09-14T00:35:05.872Z,18.50
2017-09-14T00:37:33.351Z,18.50
2017-09-14T00:40:01.939Z,18.60
2017-09-14T00:42:31.136Z,18.60
2017-09-14T00:44:59.917Z,18.60
2017-09-14T00:47:29.894Z,18.60
2017-09-14T00:49:58.366Z,18.50
2017-09-14T00:52:25.965Z,18.60
2017-09-14T00:54:53.509Z,18.50
2017-09-14T00:57:21.157Z,18.50
2017-09-14T00:59:49.600Z,18.50
2017-09-14T01:02:19.166Z,18.50
2017-09-14T01:04:46.706Z,18.40
2017-09-14T01:07:15.818Z,18.50
2017-09-14T01:09:44.798Z,18.40
2017-09-14T01:12:13.229Z,18.50
2017-09-14T01:14:42.732Z,18.50
2017-09-14T01:17:11.567Z,18.50
2017-09-14T01:19:39.471Z,18.40
2017-09-14T01:22:07.090Z,18.50
2017-09-14T01:24:35.152Z,18.50
2017-09-14T01:27:04.366Z,18.50
2017-09-14T01:29:32.128Z,18.40
2017-09-14T01:32:00.069Z,18.40
2017-09-14T01:34:30.309Z,18.60
2017-09-14T01:37:00.223Z,18.50
2017-09-14T01:39:28.267Z,18.60
2017-09-14T01:41:57.086Z,18.60
2017-09-14T01:44:26.079Z,18.50
2017-09-14T01:46:53.940Z,18.60
2017-09-14T01:49:21.627Z,18.50
2017-09-14T01:51:49.111Z,18.50
2017-09-14T01:54:16.607Z,18.50
2017-09-14T01:56:44.866Z,18.50
2017-09-14T01:59:12.355Z,18.50
2017-09-14T02:01:40.599Z,18.40
2017-09-14T02:04:08.088Z,18.40
2017-09-14T02:06:36.339Z,18.30
2017-09-14T02:09:05.328Z,18.20
2017-09-14T02:11:32.820Z,18.20
2017-09-14T02:14:01.066Z,18.30
2017-09-14T02:16:28.554Z,18.20
2017-09-14T02:18:56.789Z,18.20
2017-09-14T02:21:24.263Z,18.10
2017-09-14T02:23:51.739Z,18.10
2017-09-14T02:26:19.978Z,18.00
2017-09-14T02:28:47.475Z,18.00
2017-09-14T02:31:15.727Z,18.10
2017-09-14T02:33:43.205Z,18.00
2017-09-14T02:36:11.460Z,18.20
2017-09-14T02:38:38.946Z,18.20
2017-09-14T02:41:07.187Z,18.20
2017-09-14T02:43:34.672Z,18.10
2017-09-14T02:46:02.926Z,18.10
2017-09-14T02:48:30.407Z,18.10
2017-09-14T02:50:58.650Z,18.20
2017-09-14T02:53:26.153Z,18.20
2017-09-14T02:55:54.408Z,18.20
2017-09-14T02:58:21.884Z,18.10
2017-09-14T03:00:50.164Z,18.00
2017-09-14T03:03:18.424Z,18.00
2017-09-14T03:05:45.910Z,18.00
2017-09-14T03:08:14.159Z,18.00
2017-09-14T03:10:41.649Z,18.00
2017-09-14T03:13:09.891Z,17.80
2017-09-14T03:15:37.382Z,17.80
2017-09-14T03:18:05.627Z,17.80
2017-09-14T03:20:33.123Z,17.80
2017-09-14T03:23:00.602Z,17.90
2017-09-14T03:25:28.093Z,17.90
2017-09-14T03:27:55.564Z,17.90
2017-09-14T03:30:23.042Z,17.80
2017-09-14T03:32:51.290Z,17.80
2017-09-14T03:35:18.766Z,17.70
2017-09-14T03:37:47.008Z,17.80
2017-09-14T03:40:14.486Z,17.80
2017-09-14T03:42:41.965Z,17.80
2017-09-14T03:45:10.211Z,17.90
2017-09-14T03:47:37.691Z,17.90
2017-09-14T03:50:05.180Z,17.90
2017-09-14T03:52:33.430Z,17.80
2017-09-14T03:55:00.921Z,17.80
2017-09-14T03:57:28.410Z,17.80
2017-09-14T03:59:55.899Z,17.80
2017-09-14T04:02:23.374Z,17.80
2017-09-14T04:04:51.626Z,17.80
2017-09-14T04:07:19.113Z,17.70
2017-09-14T04:09:47.357Z,17.70
2017-09-14T04:12:14.846Z,17.60
2017-09-14T04:14:43.104Z,17.70
2017-09-14T04:17:10.591Z,17.70
2017-09-14T04:19:38.840Z,17.70
2017-09-14T04:22:06.322Z,17.60
2017-09-14T04:24:34.571Z,17.60
2017-09-14T04:27:02.059Z,17.60
2017-09-14T04:29:30.330Z,17.70
2017-09-14T04:31:58.573Z,17.70
2017-09-14T04:34:26.054Z,17.60
2017-09-14T04:36:53.535Z,17.60
2017-09-14T04:39:21.787Z,17.40
2017-09-14T04:41:49.283Z,17.30
2017-09-14T04:44:16.774Z,17.30
2017-09-14T04:46:44.255Z,17.20
2017-09-14T04:49:11.735Z,17.20
2017-09-14T04:51:39.214Z,17.10
2017-09-14T04:54:07.479Z,17.20
2017-09-14T04:56:35.726Z,17.20
2017-09-14T04:59:03.206Z,17.10
2017-09-14T05:01:30.690Z,17.50
2017-09-14T05:03:58.185Z,17.20
2017-09-14T05:06:25.689Z,17.20
2017-09-14T05:08:53.951Z,17.30
2017-09-14T05:11:21.435Z,17.30
2017-09-14T05:13:49.676Z,17.30
2017-09-14T05:16:17.160Z,17.30
2017-09-14T05:18:45.402Z,17.30
2017-09-14T05:21:12.891Z,17.20
2017-09-14T05:23:41.147Z,17.40
2017-09-14T05:26:08.623Z,17.30
2017-09-14T05:28:36.103Z,17.30
2017-09-14T05:31:04.354Z,17.20
2017-09-14T05:33:32.618Z,17.30
2017-09-14T05:36:00.095Z,17.30
2017-09-14T05:38:27.574Z,17.20
2017-09-14T05:40:55.831Z,17.40
2017-09-14T05:43:23.317Z,17.40
2017-09-14T05:45:50.802Z,17.50
2017-09-14T05:48:18.294Z,17.50
2017-09-14T05:50:45.778Z,17.60
2017-09-14T05:53:14.034Z,17.60
2017-09-14T05:55:41.514Z,17.50
2017-09-14T05:58:09.762Z,17.70
2017-09-14T06:00:37.242Z,17.60
2017-09-14T06:03:05.559Z,17.70
2017-09-14T06:05:33.045Z,17.60
2017-09-14T06:08:00.534Z,17.70
2017-09-14T06:10:28.017Z,17.70
2017-09-14T06:12:56.274Z,17.80
2017-09-14T06:15:24.539Z,17.70
2017-09-14T06:17:52.036Z,17.70
2017-09-14T06:20:19.526Z,17.70
2017-09-14T06:22:47.011Z,17.80
2017-09-14T06:25:14.498Z,17.80
2017-09-14T06:27:42.750Z,17.70
2017-09-14T06:30:10.222Z,17.70
2017-09-14T06:32:38.476Z,17.80
2017-09-14T06:35:05.971Z,17.80
2017-09-14T06:37:34.338Z,17.90
2017-09-14T06:40:02.586Z,17.90
2017-09-14T06:42:30.068Z,17.80
2017-09-14T06:44:57.556Z,17.90
2017-09-14T06:47:25.045Z,17.90
2017-09-14T06:49:52.534Z,18.00
2017-09-14T06:52:20.030Z,18.00
2017-09-14T06:54:48.296Z,18.10
2017-09-14T06:57:16.546Z,18.00
2017-09-14T06:59:44.052Z,18.00
2017-09-14T07:02:11.556Z,18.10
2017-09-14T07:04:39.063Z,18.10
2017-09-14T07:07:06.551Z,18.70
2017-09-14T07:09:34.039Z,18.50
2017-09-14T07:12:01.526Z,18.90
2017-09-14T07:14:29.827Z,19.80
2017-09-14T07:16:57.314Z,19.70
2017-09-14T07:19:24.803Z,19.80
2017-09-14T07:21:53.795Z,19.20
2017-09-14T07:24:21.281Z,19.20
2017-09-14T07:26:49.526Z,19.50
2017-09-14T07:29:17.039Z,19.50
2017-09-14T07:31:44.507Z,19.30
2017-09-14T07:34:11.985Z,19.70
2017-09-14T07:36:39.468Z,19.70
2017-09-14T07:39:06.961Z,20.00
2017-09-14T07:41:34.455Z,19.70
2017-09-14T07:44:01.952Z,19.50
2017-09-14T07:46:30.210Z,19.80
2017-09-14T07:48:57.708Z,19.70
2017-09-14T07:51:25.961Z,20.00
2017-09-14T07:53:54.222Z,19.90
2017-09-14T07:56:21.719Z,19.90
2017-09-14T07:58:49.972Z,20.20
2017-09-14T08:01:17.592Z,20.20
2017-09-14T08:03:45.102Z,20.40
2017-09-14T08:06:14.102Z,20.20
2017-09-14T08:08:42.368Z,20.30
2017-09-14T08:11:10.619Z,20.40
2017-09-14T08:13:38.118Z,20.40
2017-09-14T08:16:06.366Z,20.30
2017-09-14T08:18:33.843Z,20.30
2017-09-14T08:21:02.087Z,20.50
2017-09-14T08:23:29.600Z,20.40
2017-09-14T08:25:57.842Z,20.40
2017-09-14T08:28:25.335Z,20.40
2017-09-14T08:30:53.589Z,20.50
2017-09-14T08:33:21.838Z,20.40
2017-09-14T08:35:49.374Z,20.40
2017-09-14T08:38:16.862Z,20.60
2017-09-14T08:40:44.344Z,20.40
2017-09-14T08:43:12.588Z,20.70
2017-09-14T08:45:40.076Z,20.70
2017-09-14T08:48:09.079Z,20.50
2017-09-14T08:50:36.581Z,20.50
2017-09-14T08:53:04.066Z,20.60
2017-09-14T08:55:31.566Z,20.60
2017-09-14T08:57:59.814Z,20.40
2017-09-14T09:00:27.291Z,20.30
2017-09-14T09:02:55.541Z,20.50
2017-09-14T09:05:23.029Z,20.40
2017-09-14T09:07:51.315Z,20.40
2017-09-14T09:10:19.566Z,20.40
2017-09-14T09:12:47.067Z,20.40
2017-09-14T09:15:14.559Z,20.30
2017-09-14T09:17:42.039Z,20.60
2017-09-14T09:20:09.538Z,20.70
2017-09-14T09:22:37.037Z,20.60
2017-09-14T09:25:04.537Z,20.70
2017-09-14T09:27:32.828Z,20.70
2017-09-14T09:30:01.091Z,20.80
2017-09-14T09:32:28.590Z,20.80
2017-09-14T09:34:56.066Z,20.70
2017-09-14T09:37:23.560Z,20.70
2017-09-14T09:39:51.042Z,20.80
2017-09-14T09:42:19.294Z,20.80
2017-09-14T09:44:46.773Z,20.80
2017-09-14T09:47:15.024Z,20.70
2017-09-14T09:49:42.519Z,20.70
2017-09-14T09:52:10.776Z,20.80
2017-09-14T09:54:39.035Z,20.80
2017-09-14T09:57:06.535Z,20.80
2017-09-14T09:59:34.026Z,21.00
2017-09-14T10:02:01.516Z,21.00
2017-09-14T10:04:28.992Z,20.90
2017-09-14T10:06:57.248Z,21.00
2017-09-14T10:09:24.748Z,21.00
2017-09-14T10:11:52.226Z,21.10
2017-09-14T10:14:19.723Z,21.10
2017-09-14T10:16:47.224Z,21.20
2017-09-14T10:19:15.498Z,21.20
2017-09-14T10:21:43.742Z,21.30
2017-09-14T10:24:11.235Z,21.20
2017-09-14T10:26:39.491Z,21.40
2017-09-14T10:29:06.978Z,21.40
2017-09-14T10:31:34.471Z,21.60
2017-09-14T10:34:01.945Z,21.60
2017-09-14T10:36:29.447Z,21.70
2017-09-14T10:38:57.698Z,21.60
2017-09-14T10:41:25.183Z,21.60
2017-09-14T10:43:53.429Z,21.90
2017-09-14T10:46:20.908Z,21.80
2017-09-14T10:48:49.161Z,21.90
2017-09-14T10:51:17.411Z,22.10
2017-09-14T10:53:44.890Z,22.00
2017-09-14T10:56:12.377Z,22.30
2017-09-14T10:58:40.627Z,22.20
2017-09-14T11:01:08.152Z,22.20
2017-09-14T11:03:35.639Z,22.20
2017-09-14T11:06:03.135Z,22.60
2017-09-14T11:08:31.387Z,22.90
2017-09-14T11:10:59.629Z,23.00
2017-09-14T11:13:27.114Z,23.00
2017-09-14T11:15:54.644Z,23.10
2017-09-14T11:18:22.155Z,22.90
2017-09-14T11:20:49.642Z,22.90
2017-09-14T11:23:17.896Z,22.90
2017-09-14T11:25:46.235Z,22.90
2017-09-14T11:28:13.743Z,22.90
2017-09-14T11:30:42.005Z,22.70
2017-09-14T11:33:09.479Z,22.70
2017-09-14T11:35:37.721Z,22.70
2017-09-14T11:38:05.217Z,22.70
2017-09-14T11:40:33.462Z,22.70
2017-09-14T11:43:00.953Z,22.70
2017-09-14T11:45:28.450Z,22.90
2017-09-14T11:47:55.926Z,22.70
2017-09-14T11:50:23.421Z,22.90
2017-09-14T11:52:51.665Z,22.70
2017-09-14T11:55:19.146Z,22.70
2017-09-14T11:57:46.617Z,22.70
2017-09-14T12:00:14.876Z,22.80
2017-09-14T12:02:42.353Z,22.80
2017-09-14T12:05:10.606Z,22.90
2017-09-14T12:07:38.858Z,22.80
2017-09-14T12:10:06.343Z,22.80
2017-09-14T12:12:34.652Z,22.60
2017-09-14T12:15:02.899Z,22.70
2017-09-14T12:17:30.402Z,22.70
2017-09-14T12:19:57.887Z,22.90
2017-09-14T12:22:25.366Z,22.90
2017-09-14T12:24:52.849Z,22.90
2017-09-14T12:27:21.081Z,22.60
2017-09-14T12:29:48.567Z,22.60
2017-09-14T12:32:16.816Z,22.90
2017-09-14T12:34:44.294Z,22.80
2017-09-14T12:37:11.787Z,23.40
2017-09-14T12:39:40.037Z,24.20
2017-09-14T12:42:08.286Z,23.90
2017-09-14T12:44:35.774Z,23.80
2017-09-14T12:47:04.770Z,24.10
2017-09-14T12:49:33.065Z,24.40
2017-09-14T12:52:01.314Z,24.50
2017-09-14T12:54:28.807Z,24.40
2017-09-14T12:56:57.079Z,24.00
2017-09-14T12:59:25.340Z,24.00
2017-09-14T13:01:53.166Z,24.00
2017-09-14T13:04:20.698Z,24.30
2017-09-14T13:06:48.938Z,24.10
2017-09-14T13:09:16.415Z,24.00
2017-09-14T13:11:43.898Z,24.00
2017-09-14T13:14:11.395Z,24.20
2017-09-14T13:16:38.888Z,24.30
2017-09-14T13:19:06.383Z,24.50
2017-09-14T13:21:33.866Z,24.50
2017-09-14T13:24:01.374Z,24.50
2017-09-14T13:26:29.634Z,24.50
2017-09-14T13:28:57.115Z,24.50
2017-09-14T13:31:25.363Z,24.50
2017-09-14T13:33:52.862Z,24.50
2017-09-14T13:36:20.348Z,24.60
2017-09-14T13:38:47.844Z,24.70
2017-09-14T13:41:15.326Z,24.50
2017-09-14T13:43:44.289Z,24.40
2017-09-14T13:46:11.774Z,24.30
2017-09-14T13:48:40.045Z,24.20
2017-09-14T13:51:07.587Z,24.10
2017-09-14T13:53:35.072Z,24.40
2017-09-14T13:56:03.313Z,24.20
2017-09-14T13:58:30.801Z,24.20
2017-09-14T14:00:58.291Z,24.40
2017-09-14T14:03:25.782Z,24.20
2017-09-14T14:05:53.273Z,24.10
2017-09-14T14:08:20.751Z,24.00
2017-09-14T14:10:49.027Z,24.10
2017-09-14T14:13:17.286Z,24.00
2017-09-14T14:15:44.758Z,24.00
2017-09-14T14:18:17.023Z,24.20
2017-09-14T14:20:44.873Z,24.20
2017-09-14T14:23:13.122Z,24.10
2017-09-14T14:25:40.602Z,24.10
2017-09-14T14:28:08.080Z,24.10
2017-09-14T14:30:35.576Z,23.90
2017-09-14T14:33:03.066Z,23.90
2017-09-14T14:35:30.554Z,23.80
2017-09-14T14:37:58.037Z,23.80
2017-09-14T14:40:26.295Z,24.10
2017-09-14T14:42:54.538Z,24.10
2017-09-14T14:45:22.025Z,24.10
2017-09-14T14:47:49.502Z,24.10
2017-09-14T14:50:18.359Z,23.80
2017-09-14T14:52:45.833Z,23.80
2017-09-14T14:55:13.318Z,23.70
2017-09-14T14:57:41.559Z,23.80
2017-09-14T15:00:09.063Z,23.70
2017-09-14T15:02:36.566Z,24.00
2017-09-14T15:05:04.047Z,24.30
2017-09-14T15:07:31.548Z,24.10
2017-09-14T15:09:59.049Z,24.20
2017-09-14T15:12:26.532Z,24.10
2017-09-14T15:14:54.787Z,24.30
2017-09-14T15:17:22.278Z,24.30
2017-09-14T15:19:50.523Z,24.00
2017-09-14T15:22:18.052Z,23.90
2017-09-14T15:24:45.592Z,23.60
2017-09-14T15:27:13.073Z,24.10
2017-09-14T15:29:40.562Z,24.20
2017-09-14T15:32:08.067Z,24.20
2017-09-14T15:34:35.575Z,24.10
2017-09-14T15:37:03.088Z,24.20
2017-09-14T15:39:36.237Z,24.20
2017-09-14T15:42:03.709Z,23.90
2017-09-14T15:44:36.970Z,24.10
2017-09-14T15:47:04.454Z,24.00
2017-09-14T15:49:37.727Z,24.10
2017-09-14T15:52:05.219Z,24.10
2017-09-14T15:54:33.467Z,24.10
2017-09-14T15:57:00.953Z,24.10
2017-09-14T15:59:29.199Z,24.20
2017-09-14T16:01:56.684Z,24.20
2017-09-14T16:04:24.174Z,24.20
2017-09-14T16:06:51.653Z,24.10
2017-09-14T16:09:19.134Z,24.20
2017-09-14T16:11:46.609Z,24.10
2017-09-14T16:14:14.089Z,24.10
2017-09-14T16:16:42.334Z,23.90
2017-09-14T16:19:09.819Z,23.90
2017-09-14T16:21:38.090Z,23.90
2017-09-14T16:24:05.579Z,23.80
2017-09-14T16:26:33.079Z,23.90
2017-09-14T16:29:00.575Z,23.80
2017-09-14T16:31:28.835Z,24.00
2017-09-14T16:33:57.087Z,23.90
2017-09-14T16:36:24.590Z,23.80
2017-09-14T16:38:52.842Z,23.80
2017-09-14T16:41:20.322Z,23.70
2017-09-14T16:43:48.569Z,23.70
2017-09-14T16:46:16.053Z,23.60
2017-09-14T16:48:43.539Z,23.60
2017-09-14T16:51:11.027Z,23.80
2017-09-14T16:53:38.529Z,23.70
2017-09-14T16:56:06.811Z,23.50
2017-09-14T16:58:35.063Z,23.50
2017-09-14T17:01:02.550Z,23.50
2017-09-14T17:03:30.816Z,23.50
2017-09-14T17:05:58.319Z,23.50
2017-09-14T17:08:25.824Z,23.50
2017-09-14T17:10:54.814Z,23.40
2017-09-14T17:13:22.292Z,23.40
2017-09-14T17:15:49.784Z,23.40
2017-09-14T17:18:17.272Z,23.30
2017-09-14T17:20:44.783Z,23.30
2017-09-14T17:23:13.034Z,23.30
2017-09-14T17:25:41.282Z,23.20
2017-09-14T17:28:08.766Z,23.20
2017-09-14T17:30:36.258Z,23.10
2017-09-14T17:33:04.517Z,23.10
2017-09-14T17:35:32.006Z,23.10
2017-09-14T17:37:59.515Z,23.10
2017-09-14T17:40:27.014Z,23.10
2017-09-14T17:42:55.272Z,23.20
2017-09-14T17:45:23.552Z,23.20
2017-09-14T17:47:51.037Z,23.10
2017-09-14T17:50:18.560Z,23.20
2017-09-14T17:52:47.566Z,23.10
2017-09-14T17:55:15.837Z,23.10
2017-09-14T17:57:43.335Z,23.10
2017-09-14T18:00:10.840Z,23.10
2017-09-14T18:02:38.330Z,23.10
2017-09-14T18:05:06.588Z,23.10
2017-09-14T18:07:35.608Z,23.00
2017-09-14T18:10:03.915Z,23.10
2017-09-14T18:12:31.410Z,23.00
2017-09-14T18:14:58.911Z,23.10
2017-09-14T18:17:27.210Z,23.10
2017-09-14T18:19:54.699Z,23.00
2017-09-14T18:22:22.190Z,23.10
2017-09-14T18:24:50.453Z,23.10
2017-09-14T18:27:17.943Z,23.10
2017-09-14T18:29:46.189Z,23.10
2017-09-14T18:32:14.454Z,23.10
2017-09-14T18:34:41.933Z,23.10
2017-09-14T18:37:09.420Z,23.10
2017-09-14T18:39:36.915Z,23.10
2017-09-14T18:42:04.406Z,23.10
2017-09-14T18:44:32.680Z,23.00
2017-09-14T18:47:00.943Z,23.00
2017-09-14T18:49:28.451Z,23.00
2017-09-14T18:51:55.929Z,23.00
2017-09-14T18:54:23.414Z,23.00
2017-09-14T18:56:50.905Z,22.90
2017-09-14T18:59:19.160Z,22.90
2017-09-14T19:01:46.662Z,22.90
2017-09-14T19:04:14.158Z,22.90
2017-09-14T19:06:41.640Z,22.90
2017-09-14T19:09:09.143Z,22.90
2017-09-14T19:11:36.631Z,22.90
2017-09-14T19:14:04.136Z,22.90
2017-09-14T19:16:32.410Z,22.80
2017-09-14T19:19:00.675Z,22.80
2017-09-14T19:21:28.969Z,22.90
2017-09-14T19:23:57.319Z,22.90
2017-09-14T19:26:24.802Z,22.90
2017-09-14T19:28:52.290Z,22.90
2017-09-14T19:31:19.782Z,22.80
2017-09-14T19:36:26.487Z,22.90
2017-09-14T19:38:53.973Z,22.90
2017-09-14T19:41:21.471Z,22.90
2017-09-14T19:43:48.958Z,22.90
2017-09-14T19:46:16.455Z,22.90
2017-09-14T19:48:44.706Z,22.90
2017-09-14T19:51:12.189Z,22.90
2017-09-14T19:53:39.671Z,23.00
2017-09-14T19:56:07.160Z,23.00
2017-09-14T19:58:34.643Z,23.00
2017-09-14T20:01:02.129Z,23.00
2017-09-14T20:03:30.380Z,23.00
2017-09-14T20:05:57.859Z,22.90
2017-09-14T20:08:25.343Z,23.00
2017-09-14T20:10:52.832Z,23.00
2017-09-14T20:13:20.357Z,23.00
2017-09-14T20:15:48.605Z,22.90
2017-09-14T20:18:16.096Z,22.90
2017-09-14T20:20:43.679Z,22.90
2017-09-14T20:23:11.164Z,22.90
2017-09-14T20:25:38.660Z,22.90
2017-09-14T20:28:06.918Z,22.80
2017-09-14T20:30:34.410Z,22.80
2017-09-14T20:33:02.667Z,22.80
2017-09-14T20:35:30.938Z,22.80
2017-09-14T20:37:58.427Z,22.70
2017-09-14T20:40:25.923Z,22.80
2017-09-14T20:42:53.426Z,22.80
2017-09-14T20:45:21.686Z,22.70
2017-09-14T20:47:50.687Z,22.60
2017-09-14T20:50:18.183Z,22.60
2017-09-14T20:52:45.678Z,22.60
2017-09-14T20:55:13.170Z,22.60
2017-09-14T20:57:41.424Z,22.50
2017-09-14T21:00:08.913Z,22.50
2017-09-14T21:02:37.167Z,22.40
2017-09-14T21:05:04.655Z,22.40
2017-09-14T21:07:32.908Z,22.40
2017-09-14T21:10:01.890Z,22.30
2017-09-14T21:12:29.387Z,22.30
2017-09-14T21:14:57.637Z,22.30
2017-09-14T21:17:25.126Z,22.30
2017-09-14T21:19:53.372Z,22.20
2017-09-14T21:22:21.621Z,22.20
2017-09-14T21:24:49.109Z,22.20
2017-09-14T21:27:17.368Z,22.10
2017-09-14T21:29:44.849Z,22.10
2017-09-14T21:32:13.852Z,21.90
2017-09-14T21:34:42.093Z,22.00
2017-09-14T21:37:09.576Z,21.90
2017-09-14T21:39:37.835Z,22.00
2017-09-14T21:42:05.334Z,21.90
2017-09-14T21:44:33.587Z,21.90
2017-09-14T21:47:01.096Z,21.80
2017-09-14T21:49:28.581Z,21.90
2017-09-14T21:51:56.068Z,21.90
2017-09-14T21:54:23.554Z,21.90
2017-09-14T21:56:51.812Z,21.70
2017-09-14T21:59:20.064Z,21.70
2017-09-14T22:01:47.546Z,21.70
2017-09-14T22:04:15.036Z,21.80
2017-09-14T22:06:42.556Z,21.80
2017-09-14T22:09:10.040Z,21.80
2017-09-14T22:11:38.289Z,21.60
2017-09-14T22:14:07.283Z,21.60
2017-09-14T22:16:34.770Z,21.60
2017-09-14T22:19:03.075Z,21.60
2017-09-14T22:21:30.562Z,21.60
2017-09-14T22:23:58.036Z,21.60
2017-09-14T22:26:25.526Z,21.50
2017-09-14T22:28:53.778Z,21.40
2017-09-14T22:31:22.771Z,21.40
2017-09-14T22:33:51.774Z,21.30
2017-09-14T22:36:20.018Z,21.30
2017-09-14T22:38:47.503Z,21.30
2017-09-14T22:41:15.759Z,21.50
2017-09-14T22:43:43.250Z,21.40
2017-09-14T22:46:11.491Z,21.30
2017-09-14T22:48:38.976Z,21.30
2017-09-14T22:51:06.459Z,21.20
2017-09-14T22:53:34.707Z,21.20
2017-09-14T22:56:02.681Z,21.20
2017-09-14T22:58:31.112Z,21.30
2017-09-14T23:00:58.659Z,21.20
2017-09-14T23:03:26.256Z,21.20
2017-09-14T23:05:53.998Z,21.20
2017-09-14T23:08:21.622Z,21.20
2017-09-14T23:10:49.426Z,21.20
2017-09-14T23:13:17.191Z,21.20
2017-09-14T23:15:44.803Z,21.30
2017-09-14T23:18:13.144Z,21.20
2017-09-14T23:20:40.764Z,21.20
2017-09-14T23:23:08.461Z,21.20
2017-09-14T23:25:35.980Z,21.10
2017-09-14T23:28:04.309Z,21.20
2017-09-14T23:30:34.231Z,21.10
2017-09-14T23:33:04.348Z,21.20
2017-09-14T23:35:34.550Z,21.20
2017-09-14T23:38:04.481Z,21.20
2017-09-14T23:40:35.097Z,21.20
2017-09-14T23:43:03.611Z,21.10
2017-09-14T23:45:33.526Z,21.10
2017-09-14T23:48:03.153Z,21.10
2017-09-14T23:50:32.583Z,21.10
2017-09-14T23:53:02.117Z,21.10
2017-09-14T23:55:32.158Z,21.00
2017-09-14T23:58:02.579Z,21.00
